createdAt,value
2018-09-05T00:02:04.993Z,98206.00
2018-09-05T00:04:34.538Z,98200.19
2018-09-05T00:07:04.083Z,98199.48
2018-09-05T00:09:33.595Z,98197.14
2018-09-05T00:12:03.195Z,98195.97
2018-09-05T00:14:32.716Z,98195.30
2018-09-05T00:17:02.587Z,98191.95
2018-09-05T00:19:32.494Z,98194.89
2018-09-05T00:22:02.068Z,98191.70
2018-09-05T00:24:31.627Z,98197.48
2018-09-05T00:27:01.394Z,98194.31
2018-09-05T00:29:30.942Z,98193.61
2018-09-05T00:32:00.468Z,98193.28
2018-09-05T00:34:29.978Z,98191.76
2018-09-05T00:36:59.555Z,98185.95
2018-09-05T00:39:29.112Z,98183.25
2018-09-05T00:41:59.023Z,98186.69
2018-09-05T00:44:28.589Z,98187.66
2018-09-05T00:46:58.267Z,98187.13
2018-09-05T00:49:27.838Z,98189.23
2018-09-05T00:51:57.344Z,98183.25
2018-09-05T00:54:26.886Z,98181.41
2018-09-05T00:56:56.462Z,98179.06
2018-09-05T00:59:26.017Z,98182.20
2018-09-05T01:01:55.530Z,98177.21
2018-09-05T01:04:25.310Z,98181.31
2018-09-05T01:06:54.918Z,98173.48
2018-09-05T01:09:24.415Z,98175.59
2018-09-05T01:11:54.001Z,98174.73
2018-09-05T01:14:23.523Z,98182.66
2018-09-05T01:16:53.040Z,98180.66
2018-09-05T01:19:22.549Z,98174.34
2018-09-05T01:21:52.115Z,98173.67
2018-09-05T01:24:21.653Z,98179.23
2018-09-05T01:26:51.390Z,98177.85
2018-09-05T01:29:20.947Z,98183.27
2018-09-05T01:31:50.518Z,98180.31
2018-09-05T01:34:20.410Z,98187.05
2018-09-05T01:36:49.949Z,98187.66
2018-09-05T01:39:19.478Z,98181.85
2018-09-05T01:41:48.994Z,98189.91
2018-09-05T01:44:18.523Z,98186.59
2018-09-05T01:46:48.069Z,98193.47
2018-09-05T01:49:17.619Z,98185.48
2018-09-05T01:51:47.170Z,98182.14
2018-09-05T01:54:17.343Z,98183.92
2018-09-05T01:56:46.904Z,98179.16
2018-09-05T01:59:16.412Z,98188.52
2018-09-05T02:01:46.403Z,98183.53
2018-09-05T02:04:16.483Z,98189.98
2018-09-05T02:06:46.055Z,98187.84
2018-09-05T02:09:15.702Z,98193.39
2018-09-05T02:11:45.251Z,98190.55
2018-09-05T02:14:14.791Z,98185.84
2018-09-05T02:16:44.360Z,98185.30
2018-09-05T02:19:13.972Z,98185.80
2018-09-05T02:21:43.499Z,98184.12
2018-09-05T02:24:13.057Z,98178.03
2018-09-05T02:26:42.542Z,98176.36
2018-09-05T02:29:12.071Z,98183.59
2018-09-05T02:31:41.599Z,98179.78
2018-09-05T02:34:11.131Z,98180.88
2018-09-05T02:36:40.667Z,98182.84
2018-09-05T02:39:11.499Z,98186.93
2018-09-05T02:41:41.075Z,98187.53
2018-09-05T02:44:15.758Z,98189.34
2018-09-05T02:46:45.274Z,98185.53
2018-09-05T02:49:14.858Z,98184.22
2018-09-05T02:51:44.424Z,98195.72
2018-09-05T02:54:14.322Z,98191.58
2018-09-05T02:56:43.883Z,98186.45
2018-09-05T02:59:13.462Z,98191.01
2018-09-05T03:01:43.009Z,98193.31
2018-09-05T03:04:12.529Z,98195.88
2018-09-05T03:06:42.087Z,98188.75
2018-09-05T03:09:11.711Z,98189.52
2018-09-05T03:11:41.417Z,98189.52
2018-09-05T03:14:10.962Z,98196.43
2018-09-05T03:16:40.508Z,98202.47
2018-09-05T03:19:10.032Z,98200.61
2018-09-05T03:21:39.566Z,98195.54
2018-09-05T03:24:09.094Z,98194.99
2018-09-05T03:26:38.651Z,98201.58
2018-09-05T03:29:08.167Z,98208.16
2018-09-05T03:31:37.694Z,98206.98
2018-09-05T03:34:07.455Z,98206.90
2018-09-05T03:36:36.986Z,98204.63
2018-09-05T03:39:10.152Z,98206.41
2018-09-05T03:41:39.741Z,98206.08
2018-09-05T03:44:09.274Z,98204.41
2018-09-05T03:46:39.044Z,98200.53
2018-09-05T03:49:08.546Z,98204.77
2018-09-05T03:51:38.092Z,98208.21
2018-09-05T03:54:08.011Z,98209.17
2018-09-05T03:56:37.591Z,98206.21
2018-09-05T03:59:07.486Z,98207.17
2018-09-05T04:01:37.323Z,98212.70
2018-09-05T04:04:07.255Z,98206.89
2018-09-05T04:06:36.772Z,98211.17
2018-09-05T04:09:08.958Z,98217.06
2018-09-05T04:11:38.601Z,98217.30
2018-09-05T04:14:08.164Z,98211.68
2018-09-05T04:16:37.650Z,98219.52
2018-09-05T04:19:07.187Z,98219.66
2018-09-05T04:21:36.747Z,98220.39
2018-09-05T04:24:06.303Z,98222.55
2018-09-05T04:26:35.813Z,98227.59
2018-09-05T04:29:05.358Z,98224.41
2018-09-05T04:31:34.882Z,98227.44
2018-09-05T04:34:04.432Z,98224.92
2018-09-05T04:36:33.935Z,98218.10
2018-09-05T04:39:05.033Z,98216.20
2018-09-05T04:41:34.556Z,98216.95
2018-09-05T04:44:04.443Z,98216.27
2018-09-05T04:46:33.975Z,98214.59
2018-09-05T04:49:03.586Z,98216.86
2018-09-05T04:51:34.931Z,98225.34
2018-09-05T04:54:05.820Z,98224.98
2018-09-05T04:56:35.421Z,98229.16
2018-09-05T04:59:04.962Z,98229.84
2018-09-05T05:01:34.956Z,98232.83
2018-09-05T05:04:04.491Z,98236.16
2018-09-05T05:06:34.031Z,98235.52
2018-09-05T05:09:04.112Z,98237.56
2018-09-05T05:11:33.644Z,98230.98
2018-09-05T05:14:03.168Z,98234.94
2018-09-05T05:16:32.726Z,98236.31
2018-09-05T05:19:02.282Z,98242.58
2018-09-05T05:21:32.057Z,98243.92
2018-09-05T05:24:01.591Z,98243.25
2018-09-05T05:26:31.090Z,98244.16
2018-09-05T05:29:00.672Z,98242.44
2018-09-05T05:31:30.191Z,98251.97
2018-09-05T05:33:59.719Z,98249.52
2018-09-05T05:36:29.258Z,98253.11
2018-09-05T05:38:58.807Z,98251.80
2018-09-05T05:41:28.586Z,98256.60
2018-09-05T05:43:58.192Z,98258.13
2018-09-05T05:46:27.947Z,98257.17
2018-09-05T05:48:57.564Z,98257.84
2018-09-05T05:51:27.065Z,98259.36
2018-09-05T05:53:56.619Z,98261.95
2018-09-05T05:56:26.171Z,98268.44
2018-09-05T05:58:55.739Z,98268.63
2018-09-05T06:01:25.296Z,98270.87
2018-09-05T06:03:54.856Z,98279.78
2018-09-05T06:06:24.451Z,98278.70
2018-09-05T06:08:54.119Z,98275.34
2018-09-05T06:11:23.660Z,98278.14
2018-09-05T06:13:53.226Z,98275.19
2018-09-05T06:16:22.774Z,98280.32
2018-09-05T06:18:52.315Z,98280.81
2018-09-05T06:21:21.932Z,98270.23
2018-09-05T06:23:51.475Z,98275.00
2018-09-05T06:26:21.171Z,98279.25
2018-09-05T06:28:50.664Z,98285.67
2018-09-05T06:31:20.480Z,98276.45
2018-09-05T06:33:50.025Z,98277.56
2018-09-05T06:36:19.668Z,98275.17
2018-09-05T06:38:50.023Z,98281.22
2018-09-05T06:41:19.594Z,98274.05
2018-09-05T06:43:49.121Z,98274.59
2018-09-05T06:46:19.263Z,98269.27
2018-09-05T06:48:48.931Z,98271.50
2018-09-05T06:51:18.816Z,98276.34
2018-09-05T06:53:48.763Z,98268.59
2018-09-05T06:56:18.392Z,98278.91
2018-09-05T06:58:48.220Z,98278.14
2018-09-05T07:01:17.955Z,98281.14
2018-09-05T07:03:47.712Z,98281.83
2018-09-05T07:06:17.512Z,98276.55
2018-09-05T07:08:47.323Z,98279.36
2018-09-05T07:11:17.191Z,98285.84
2018-09-05T07:13:46.753Z,98279.02
2018-09-05T07:16:16.505Z,98279.14
2018-09-05T07:18:46.108Z,98279.79
2018-09-05T07:21:15.772Z,98278.91
2018-09-05T07:23:45.609Z,98275.39
2018-09-05T07:26:15.318Z,98274.22
2018-09-05T07:28:45.021Z,98275.72
2018-09-05T07:31:14.635Z,98278.63
2018-09-05T07:33:44.359Z,98274.87
2018-09-05T07:36:13.882Z,98279.59
2018-09-05T07:38:43.420Z,98272.41
2018-09-05T07:41:12.972Z,98280.31
2018-09-05T07:43:42.873Z,98285.44
2018-09-05T07:46:12.631Z,98287.94
2018-09-05T07:48:42.230Z,98285.34
2018-09-05T07:51:11.800Z,98290.20
2018-09-05T07:53:41.524Z,98291.04
2018-09-05T07:56:11.070Z,98285.59
2018-09-05T07:58:40.627Z,98302.03
2018-09-05T08:01:10.219Z,98291.62
2018-09-05T08:03:39.739Z,98295.39
2018-09-05T08:06:09.295Z,98290.54
2018-09-05T08:08:38.866Z,98291.43
2018-09-05T08:11:08.446Z,98288.41
2018-09-05T08:13:38.372Z,98290.15
2018-09-05T08:16:08.195Z,98292.35
2018-09-05T08:18:37.840Z,98294.55
2018-09-05T08:21:07.396Z,98296.70
2018-09-05T08:23:37.343Z,98298.25
2018-09-05T08:26:06.965Z,98288.95
2018-09-05T08:28:36.547Z,98285.75
2018-09-05T08:31:06.290Z,98286.03
2018-09-05T08:33:36.251Z,98287.23
2018-09-05T08:36:06.392Z,98290.51
2018-09-05T08:38:35.984Z,98282.13
2018-09-05T08:41:09.006Z,98279.04
2018-09-05T08:43:39.871Z,98286.57
2018-09-05T08:46:09.732Z,98282.22
2018-09-05T08:48:39.482Z,98281.16
2018-09-05T08:51:09.158Z,98280.28
2018-09-05T08:53:38.779Z,98275.27
2018-09-05T08:56:08.464Z,98281.61
2018-09-05T08:58:38.150Z,98277.28
2018-09-05T09:01:07.896Z,98276.39
2018-09-05T09:03:37.495Z,98274.97
2018-09-05T09:06:07.570Z,98274.49
2018-09-05T09:08:37.113Z,98275.43
2018-09-05T09:11:06.992Z,98277.33
2018-09-05T09:13:36.626Z,98276.89
2018-09-05T09:16:06.362Z,98275.27
2018-09-05T09:18:35.978Z,98266.81
2018-09-05T09:21:05.555Z,98263.61
2018-09-05T09:23:35.123Z,98272.05
2018-09-05T09:26:05.072Z,98267.73
2018-09-05T09:28:34.618Z,98266.02
2018-09-05T09:31:04.391Z,98256.02
2018-09-05T09:33:33.963Z,98259.73
2018-09-05T09:36:03.547Z,98256.31
2018-09-05T09:38:33.322Z,98253.84
2018-09-05T09:41:02.880Z,98242.80
2018-09-05T09:43:32.574Z,98247.12
2018-09-05T09:46:02.187Z,98241.66
2018-09-05T09:48:31.751Z,98244.52
2018-09-05T09:51:01.323Z,98238.92
2018-09-05T09:53:30.835Z,98233.28
2018-09-05T09:56:00.364Z,98231.79
2018-09-05T09:58:29.955Z,98238.89
2018-09-05T10:01:04.887Z,98232.45
2018-09-05T10:03:39.816Z,98225.45
2018-09-05T10:06:15.142Z,98228.23
2018-09-05T10:08:50.007Z,98220.45
2018-09-05T10:11:23.619Z,98221.96
2018-09-05T10:13:58.507Z,98218.46
2018-09-05T10:16:33.104Z,98217.28
2018-09-05T10:19:06.736Z,98211.95
2018-09-05T10:21:36.627Z,98213.08
2018-09-05T10:24:06.224Z,98208.16
2018-09-05T10:26:35.848Z,98206.87
2018-09-05T10:29:05.488Z,98195.22
2018-09-05T10:31:35.049Z,98194.55
2018-09-05T10:34:04.822Z,98191.33
2018-09-05T10:36:34.358Z,98188.66
2018-09-05T10:39:04.993Z,98191.08
2018-09-05T10:41:34.532Z,98183.06
2018-09-05T10:44:04.382Z,98176.55
2018-09-05T10:46:33.991Z,98167.97
2018-09-05T10:49:03.591Z,98176.73
2018-09-05T10:51:38.398Z,98177.16
2018-09-05T10:54:08.318Z,98175.77
2018-09-05T10:56:38.230Z,98177.70
2018-09-05T10:59:07.787Z,98177.17
2018-09-05T11:01:37.405Z,98166.59
2018-09-05T11:04:07.330Z,98170.16
2018-09-05T11:06:37.100Z,98166.03
2018-09-05T11:09:10.730Z,98164.11
2018-09-05T11:11:40.578Z,98162.78
2018-09-05T11:14:11.099Z,98162.47
2018-09-05T11:16:41.054Z,98156.67
2018-09-05T11:19:10.851Z,98156.23
2018-09-05T11:21:40.716Z,98154.44
2018-09-05T11:24:10.347Z,98155.34
2018-09-05T11:26:39.935Z,98147.80
2018-09-05T11:29:09.623Z,98150.63
2018-09-05T11:31:39.386Z,98151.16
2018-09-05T11:34:08.930Z,98146.39
2018-09-05T11:36:38.458Z,98144.90
2018-09-05T11:39:12.042Z,98143.42
2018-09-05T11:41:41.664Z,98153.43
2018-09-05T11:44:11.235Z,98149.02
2018-09-05T11:46:40.787Z,98140.02
2018-09-05T11:49:10.356Z,98143.22
2018-09-05T11:51:39.958Z,98140.91
2018-09-05T11:54:10.224Z,98133.98
2018-09-05T11:56:39.831Z,98137.69
2018-09-05T11:59:09.415Z,98131.94
2018-09-05T12:01:38.981Z,98129.41
2018-09-05T12:04:08.735Z,98132.97
2018-09-05T12:06:38.391Z,98131.02
2018-09-05T12:09:10.939Z,98132.09
2018-09-05T12:11:40.534Z,98127.22
2018-09-05T12:14:10.858Z,98123.36
2018-09-05T12:16:40.483Z,98125.98
2018-09-05T12:19:10.090Z,98120.75
2018-09-05T12:21:40.024Z,98115.60
2018-09-05T12:24:09.543Z,98112.43
2018-09-05T12:26:39.475Z,98112.00
2018-09-05T12:29:11.359Z,98107.56
2018-09-05T12:31:41.496Z,98108.31
2018-09-05T12:34:12.756Z,98109.65
2018-09-05T12:36:42.353Z,98109.33
2018-09-05T12:39:13.928Z,98101.91
2018-09-05T12:41:44.027Z,98098.80
2018-09-05T12:44:13.649Z,98099.49
2018-09-05T12:46:43.241Z,98096.45
2018-09-05T12:49:12.779Z,98099.30
2018-09-05T12:51:42.310Z,98092.70
2018-09-05T12:54:11.931Z,98096.14
2018-09-05T12:56:41.490Z,98087.44
2018-09-05T12:59:11.108Z,98091.50
2018-09-05T13:01:40.806Z,98085.72
2018-09-05T13:04:10.919Z,98085.81
2018-09-05T13:06:40.508Z,98082.91
2018-09-05T13:09:13.040Z,98089.93
2018-09-05T13:11:43.279Z,98084.84
2018-09-05T13:14:13.542Z,98075.59
2018-09-05T13:16:43.072Z,98082.31
2018-09-05T13:19:12.636Z,98078.88
2018-09-05T13:21:42.230Z,98072.84
2018-09-05T13:24:11.859Z,98064.97
2018-09-05T13:26:42.041Z,98065.21
2018-09-05T13:29:11.774Z,98063.11
2018-09-05T13:31:41.383Z,98061.98
2018-09-05T13:34:21.341Z,98060.25
2018-09-05T13:36:54.851Z,98063.56
2018-09-05T13:39:27.584Z,98054.32
2018-09-05T13:41:57.235Z,98056.44
2018-09-05T13:44:32.541Z,98051.75
2018-09-05T13:47:03.914Z,98050.50
2018-09-05T13:49:35.040Z,98048.09
2018-09-05T13:52:06.530Z,98042.95
2018-09-05T13:54:37.399Z,98044.30
2018-09-05T13:57:06.948Z,98041.47
2018-09-05T13:59:36.843Z,98036.00
2018-09-05T14:02:06.794Z,98034.30
2018-09-05T14:04:36.668Z,98030.56
2018-09-05T14:07:06.278Z,98022.36
2018-09-05T14:09:35.866Z,98017.52
2018-09-05T14:12:06.358Z,98016.17
2018-09-05T14:14:36.271Z,98015.14
2018-09-05T14:17:06.003Z,98013.64
2018-09-05T14:19:35.854Z,98012.92
2018-09-05T14:22:05.687Z,98007.68
2018-09-05T14:24:35.350Z,98008.48
2018-09-05T14:27:05.792Z,98009.99
2018-09-05T14:29:35.390Z,98008.12
2018-09-05T14:32:04.966Z,98008.71
2018-09-05T14:34:34.496Z,98007.23
2018-09-05T14:37:04.187Z,98000.58
2018-09-05T14:39:33.879Z,98000.23
2018-09-05T14:42:03.657Z,98006.36
2018-09-05T14:44:33.414Z,97995.89
2018-09-05T14:47:03.687Z,98005.30
2018-09-05T14:49:33.339Z,98001.27
2018-09-05T14:52:02.971Z,98006.14
2018-09-05T14:54:32.869Z,98006.95
2018-09-05T14:57:03.364Z,98004.63
2018-09-05T14:59:33.014Z,98005.66
2018-09-05T15:02:02.596Z,98003.72
2018-09-05T15:04:32.341Z,97997.22
2018-09-05T15:07:02.040Z,97994.22
2018-09-05T15:09:31.751Z,97988.70
2018-09-05T15:12:01.416Z,97985.85
2018-09-05T15:14:31.091Z,97990.88
2018-09-05T15:17:01.196Z,97992.09
2018-09-05T15:19:31.120Z,97987.31
2018-09-05T15:22:05.811Z,97988.75
2018-09-05T15:24:35.646Z,97991.03
2018-09-05T15:27:06.567Z,97980.20
2018-09-05T15:29:36.715Z,97983.20
2018-09-05T15:32:06.420Z,97977.61
2018-09-05T15:34:36.423Z,97982.89
2018-09-05T15:37:06.167Z,97978.64
2018-09-05T15:39:35.811Z,97976.83
2018-09-05T15:42:05.976Z,97977.23
2018-09-05T15:44:35.983Z,97975.80
2018-09-05T15:47:05.785Z,97980.54
2018-09-05T15:49:35.499Z,97982.48
2018-09-05T15:52:05.778Z,97985.63
2018-09-05T15:54:35.643Z,97980.84
2018-09-05T15:57:05.244Z,97981.60
2018-09-05T15:59:34.818Z,97978.86
2018-09-05T16:02:04.442Z,97979.23
2018-09-05T16:04:34.079Z,97984.31
2018-09-05T16:07:04.247Z,97979.98
2018-09-05T16:09:33.819Z,97977.02
2018-09-05T16:12:03.439Z,97975.81
2018-09-05T16:14:33.011Z,97971.93
2018-09-05T16:17:02.616Z,97968.23
2018-09-05T16:19:32.186Z,97971.04
2018-09-05T16:22:01.731Z,97977.03
2018-09-05T16:24:31.243Z,97970.95
2018-09-05T16:27:00.902Z,97969.53
2018-09-05T16:29:30.444Z,97966.64
2018-09-05T16:32:00.050Z,97964.80
2018-09-05T16:34:29.956Z,97971.38
2018-09-05T16:36:59.547Z,97963.77
2018-09-05T16:39:29.102Z,97961.50
2018-09-05T16:41:58.816Z,97966.75
2018-09-05T16:44:28.443Z,97964.20
2018-09-05T16:46:58.007Z,97968.42
2018-09-05T16:49:27.587Z,97968.52
2018-09-05T16:51:57.169Z,97968.12
2018-09-05T16:54:26.752Z,97967.19
2018-09-05T16:56:56.386Z,97963.67
2018-09-05T16:59:25.961Z,97968.63
2018-09-05T17:01:55.877Z,97969.15
2018-09-05T17:04:25.569Z,97967.70
2018-09-05T17:06:55.127Z,97963.28
2018-09-05T17:09:24.761Z,97968.23
2018-09-05T17:11:54.693Z,97960.83
2018-09-05T17:14:24.273Z,97965.33
2018-09-05T17:16:54.048Z,97966.27
2018-09-05T17:19:24.131Z,97969.03
2018-09-05T17:21:53.696Z,97974.80
2018-09-05T17:24:23.321Z,97970.66
2018-09-05T17:26:52.859Z,97974.23
2018-09-05T17:29:22.427Z,97978.86
2018-09-05T17:31:52.019Z,97970.95
2018-09-05T17:34:21.646Z,97976.59
2018-09-05T17:36:51.247Z,97975.58
2018-09-05T17:39:21.192Z,97973.39
2018-09-05T17:41:51.328Z,97971.33
2018-09-05T17:44:21.029Z,97967.31
2018-09-05T17:46:50.807Z,97969.75
2018-09-05T17:49:20.370Z,97966.55
2018-09-05T17:51:49.942Z,97960.78
2018-09-05T17:54:19.970Z,97967.70
2018-09-05T17:56:49.561Z,97963.16
2018-09-05T17:59:19.194Z,97960.48
2018-09-05T18:01:48.789Z,97964.76
2018-09-05T18:04:18.512Z,97963.73
2018-09-05T18:06:48.192Z,97962.98
2018-09-05T18:09:17.763Z,97965.93
2018-09-05T18:11:47.432Z,97964.70
2018-09-05T18:14:17.286Z,97968.45
2018-09-05T18:16:46.917Z,97966.90
2018-09-05T18:19:16.947Z,97967.16
2018-09-05T18:21:46.657Z,97968.15
2018-09-05T18:24:16.693Z,97966.27
2018-09-05T18:26:46.496Z,97966.20
2018-09-05T18:29:16.290Z,97967.70
2018-09-05T18:31:45.884Z,97966.76
2018-09-05T18:34:15.496Z,97977.50
2018-09-05T18:36:45.096Z,97975.41
2018-09-05T18:39:21.307Z,97970.04
2018-09-05T18:41:50.887Z,97977.87
2018-09-05T18:44:20.539Z,97979.41
2018-09-05T18:46:50.178Z,97975.20
2018-09-05T18:49:20.130Z,97979.78
2018-09-05T18:51:49.800Z,97980.35
2018-09-05T18:54:19.418Z,97985.34
2018-09-05T18:56:49.101Z,97986.91
2018-09-05T18:59:19.108Z,97985.83
2018-09-05T19:01:49.229Z,97990.28
2018-09-05T19:04:18.860Z,97991.23
2018-09-05T19:06:48.470Z,97990.66
2018-09-05T19:09:18.081Z,97988.93
2018-09-05T19:11:47.830Z,97985.73
2018-09-05T19:14:17.501Z,97982.34
2018-09-05T19:16:47.228Z,97978.77
2018-09-05T19:19:16.834Z,97976.41
2018-09-05T19:21:46.505Z,97978.81
2018-09-05T19:24:16.088Z,97984.00
2018-09-05T19:26:45.921Z,97988.55
2018-09-05T19:29:15.637Z,97982.12
2018-09-05T19:31:45.443Z,97984.85
2018-09-05T19:34:15.076Z,97983.05
2018-09-05T19:36:44.720Z,97982.41
2018-09-05T19:39:14.555Z,97981.82
2018-09-05T19:41:44.195Z,97981.73
2018-09-05T19:44:13.985Z,97979.30
2018-09-05T19:46:43.677Z,97983.98
2018-09-05T19:49:13.431Z,97981.24
2018-09-05T19:51:43.357Z,97983.75
2018-09-05T19:54:13.048Z,97986.14
2018-09-05T19:56:42.882Z,97988.05
2018-09-05T19:59:12.601Z,97989.47
2018-09-05T20:01:42.392Z,97981.59
2018-09-05T20:04:12.012Z,97988.08
2018-09-05T20:06:41.658Z,97988.44
2018-09-05T20:09:11.246Z,97986.69
2018-09-05T20:11:40.914Z,97984.89
2018-09-05T20:14:10.519Z,97992.08
2018-09-05T20:16:40.188Z,97992.28
2018-09-05T20:19:09.855Z,97986.38
2018-09-05T20:21:39.491Z,97989.72
2018-09-05T20:24:09.195Z,97991.59
2018-09-05T20:26:39.459Z,97985.66
2018-09-05T20:29:09.059Z,97989.02
2018-09-05T20:31:40.874Z,97982.91
2018-09-05T20:34:10.645Z,97989.05
2018-09-05T20:36:40.603Z,97985.77
2018-09-05T20:39:11.961Z,97985.65
2018-09-05T20:41:41.983Z,97983.01
2018-09-05T20:44:11.673Z,97981.05
2018-09-05T20:46:41.239Z,97977.30
2018-09-05T20:49:10.792Z,97983.44
2018-09-05T20:51:40.344Z,97978.34
2018-09-05T20:54:10.127Z,97982.98
2018-09-05T20:56:39.709Z,97981.87
2018-09-05T20:59:09.310Z,97976.89
2018-09-05T21:01:39.259Z,97977.75
2018-09-05T21:04:08.867Z,97979.94
2018-09-05T21:06:38.460Z,97979.77
2018-09-05T21:09:09.284Z,97975.80
2018-09-05T21:11:38.864Z,97972.33
2018-09-05T21:14:08.441Z,97971.05
2018-09-05T21:16:38.032Z,97979.35
2018-09-05T21:19:07.704Z,97976.53
2018-09-05T21:21:37.344Z,97973.23
2018-09-05T21:24:07.168Z,97974.40
2018-09-05T21:26:37.072Z,97970.77
2018-09-05T21:29:06.779Z,97967.81
2018-09-05T21:31:36.402Z,97974.78
2018-09-05T21:34:06.211Z,97965.84
2018-09-05T21:36:35.800Z,97967.52
2018-09-05T21:39:07.894Z,97969.18
2018-09-05T21:41:37.748Z,97971.36
2018-09-05T21:44:07.335Z,97964.90
2018-09-05T21:46:36.939Z,97972.89
2018-09-05T21:49:07.739Z,97970.06
2018-09-05T21:51:37.485Z,97971.22
2018-09-05T21:54:07.398Z,97970.88
2018-09-05T21:56:37.027Z,97975.70
2018-09-05T21:59:06.886Z,97972.58
2018-09-05T22:01:36.457Z,97972.23
2018-09-05T22:04:06.027Z,97974.06
2018-09-05T22:06:35.604Z,97976.73
2018-09-05T22:09:08.134Z,97977.89
2018-09-05T22:11:37.807Z,97977.89
2018-09-05T22:14:07.538Z,97972.27
2018-09-05T22:16:37.461Z,97969.79
2018-09-05T22:19:07.359Z,97971.45
2018-09-05T22:21:36.884Z,97977.93
2018-09-05T22:24:06.063Z,97969.64
2018-09-05T22:26:35.584Z,97972.96
2018-09-05T22:29:05.517Z,97969.96
2018-09-05T22:31:35.107Z,97971.63
2018-09-05T22:34:05.011Z,97973.13
2018-09-05T22:36:34.542Z,97970.98
2018-09-05T22:39:04.628Z,97980.42
2018-09-05T22:41:34.148Z,97977.41
2018-09-05T22:44:20.572Z,97976.42
2018-09-05T22:47:06.951Z,97974.94
2018-09-05T22:50:05.360Z,97977.44
2018-09-05T22:57:06.476Z,97974.56
2018-09-05T23:00:23.633Z,97970.25
2018-09-05T23:17:11.928Z,97966.93
2018-09-05T23:21:58.519Z,97960.19
2018-09-05T23:24:28.044Z,97955.33
2018-09-05T23:26:57.597Z,97951.67
2018-09-05T23:29:27.131Z,97946.55
2018-09-05T23:31:56.711Z,97947.05
2018-09-05T23:34:26.265Z,97949.54
2018-09-05T23:36:55.824Z,97945.92
2018-09-05T23:39:25.368Z,97943.59
2018-09-05T23:41:54.944Z,97940.63
2018-09-05T23:44:24.536Z,97939.78
2018-09-05T23:46:54.116Z,97938.97
2018-09-05T23:49:23.612Z,97929.36
2018-09-05T23:51:53.190Z,97935.00
2018-09-05T23:54:22.735Z,97933.33
2018-09-05T23:56:52.337Z,97930.22
2018-09-05T23:59:21.916Z,97938.62
